Time;durP1;ratioP1;P1;durP2;ratioP2;P2;SDS_P1;SDS_P2;PMS_P1;PMS_P2;Temp;Humidity;BMP_temperature;BMP_pressure;BME280_temperature;BME280_humidity;BME280_pressure;Samples;Min_cycle;Max_cycle;Signal;HPM_P1;HPM_P2
2023/07/28 00:00:47;;;;;;;14.48;4.15;;;13.50;99.90;;;;;;5048483;28;20041;-78
2023/07/28 00:03:16;;;;;;;7.72;3.85;;;13.50;99.90;;;;;;5050229;28;20044;-81
2023/07/28 00:05:43;;;;;;;7.20;3.80;;;13.40;99.90;;;;;;5049857;28;20041;-81
2023/07/28 00:08:10;;;;;;;9.50;4.03;;;13.30;99.90;;;;;;5049588;28;20048;-80
2023/07/28 00:10:42;;;;;;;10.95;4.55;;;13.30;99.90;;;;;;5048731;28;20488;-79
2023/07/28 00:13:09;;;;;;;8.73;4.05;;;13.30;99.90;;;;;;5050047;28;20695;-79
2023/07/28 00:15:37;;;;;;;9.18;4.32;;;13.20;99.90;;;;;;5052110;28;20053;-78
2023/07/28 00:18:04;;;;;;;8.23;4.80;;;13.30;99.90;;;;;;5049750;28;20408;-78
2023/07/28 00:20:33;;;;;;;9.57;4.45;;;13.30;99.90;;;;;;5032201;28;20041;-79
2023/07/28 00:23:01;;;;;;;8.30;4.30;;;13.30;99.90;;;;;;5030925;28;20045;-80
2023/07/28 00:25:28;;;;;;;8.27;4.45;;;13.40;99.90;;;;;;5049365;28;20037;-81
2023/07/28 00:27:56;;;;;;;9.05;3.90;;;13.30;99.90;;;;;;5052829;28;20057;-79
2023/07/28 00:30:24;;;;;;;9.95;4.47;;;13.40;99.90;;;;;;5033360;28;20094;-79
2023/07/28 00:32:51;;;;;;;9.15;4.05;;;13.30;99.90;;;;;;5050292;28;20131;-80
2023/07/28 00:35:18;;;;;;;6.95;3.97;;;13.30;99.90;;;;;;5050660;28;20048;-79
2023/07/28 00:37:48;;;;;;;7.78;4.05;;;13.30;99.90;;;;;;5050067;28;20045;-81
2023/07/28 00:40:15;;;;;;;8.05;3.80;;;13.30;99.90;;;;;;5049603;28;20063;-78
2023/07/28 00:42:42;;;;;;;7.60;4.03;;;13.30;99.90;;;;;;5033033;28;20128;-80
2023/07/28 00:45:10;;;;;;;10.23;5.10;;;13.30;99.90;;;;;;5031715;28;20060;-80
2023/07/28 00:47:38;;;;;;;8.45;4.28;;;13.20;99.90;;;;;;5049384;28;20052;-78
2023/07/28 00:50:07;;;;;;;10.88;5.93;;;13.20;99.90;;;;;;5048577;28;20052;-81
2023/07/28 00:52:35;;;;;;;7.65;4.93;;;13.10;99.90;;;;;;5047509;28;20045;-78
2023/07/28 00:55:04;;;;;;;8.90;5.22;;;13.10;99.90;;;;;;5032322;28;23401;-80
2023/07/28 00:57:32;;;;;;;9.75;4.85;;;13.10;99.90;;;;;;5031051;28;20064;-80
2023/07/28 01:00:00;;;;;;;7.15;4.32;;;13.10;99.90;;;;;;5031193;28;20060;-80
2023/07/28 01:02:28;;;;;;;10.18;4.70;;;13.10;99.90;;;;;;5060895;28;20053;-79
2023/07/28 01:04:56;;;;;;;9.88;6.18;;;13.10;99.90;;;;;;5070999;28;20055;-79
2023/07/28 01:07:29;;;;;;;9.27;5.35;;;13.00;99.90;;;;;;5037558;28;20094;-78
2023/07/28 01:10:06;;;;;;;7.15;4.57;;;13.00;99.90;;;;;;5050183;28;20057;-78
2023/07/28 01:12:35;;;;;;;7.13;3.95;;;13.00;99.90;;;;;;5033318;28;20049;-80
2023/07/28 01:15:04;;;;;;;7.80;4.30;;;12.90;99.90;;;;;;5033056;28;20032;-79
2023/07/28 01:17:53;;;;;;;8.30;4.35;;;12.90;99.90;;;;;;4959525;28;20133;-81
2023/07/28 01:20:23;;;;;;;6.50;4.00;;;12.90;99.90;;;;;;4942722;28;20074;-79
2023/07/28 01:23:16;;;;;;;5.07;3.50;;;12.90;99.90;;;;;;4944201;28;20043;-78
2023/07/28 01:25:54;;;;;;;6.20;4.10;;;12.90;99.90;;;;;;4956562;28;20090;-78
2023/07/28 01:28:24;;;;;;;6.22;4.40;;;12.90;99.90;;;;;;4960748;28;20415;-80
2023/07/28 01:30:52;;;;;;;8.65;4.13;;;12.90;99.90;;;;;;4957706;28;20039;-80
2023/07/28 01:33:20;;;;;;;9.65;4.05;;;12.90;99.90;;;;;;4957027;28;20039;-79
2023/07/28 01:35:47;;;;;;;7.32;4.20;;;12.90;99.90;;;;;;4958868;28;20148;-80
2023/07/28 01:38:16;;;;;;;6.53;4.57;;;12.80;99.90;;;;;;4943429;28;20054;-81
2023/07/28 01:40:43;;;;;;;8.07;4.93;;;12.80;99.90;;;;;;4959760;28;20583;-79
2023/07/28 01:43:10;;;;;;;6.15;3.92;;;12.70;99.90;;;;;;4956827;28;20126;-80
2023/07/28 01:45:39;;;;;;;7.28;3.85;;;12.50;99.90;;;;;;4965421;28;20142;-79
2023/07/28 01:48:09;;;;;;;7.55;4.30;;;12.50;99.90;;;;;;4959650;28;20500;-80
2023/07/28 01:50:36;;;;;;;8.68;4.10;;;12.50;99.90;;;;;;4958819;28;20114;-82
2023/07/28 01:53:05;;;;;;;8.48;4.22;;;12.40;99.90;;;;;;4958299;28;20542;-80
2023/07/28 01:55:32;;;;;;;9.07;4.80;;;12.30;99.90;;;;;;5010541;28;20136;-79
2023/07/28 01:58:01;;;;;;;6.65;4.57;;;12.30;99.90;;;;;;5032376;28;20167;-79
2023/07/28 02:00:29;;;;;;;6.10;4.10;;;12.40;99.90;;;;;;5031541;28;20128;-81
2023/07/28 02:03:01;;;;;;;6.22;3.90;;;12.40;99.90;;;;;;5041579;28;20194;-81
2023/07/28 02:05:29;;;;;;;6.00;4.00;;;12.40;99.90;;;;;;5042763;28;20080;-80
2023/07/28 02:07:57;;;;;;;6.65;4.10;;;12.50;99.90;;;;;;5048943;28;20037;-81
2023/07/28 02:10:24;;;;;;;5.50;3.78;;;12.50;99.90;;;;;;5048296;28;20052;-79
2023/07/28 02:12:52;;;;;;;7.30;3.95;;;12.50;99.90;;;;;;5037771;28;20045;-80
2023/07/28 02:15:19;;;;;;;7.30;3.75;;;12.50;99.90;;;;;;5031945;28;20045;-80
2023/07/28 02:17:47;;;;;;;6.43;3.60;;;12.50;99.90;;;;;;5030104;28;20033;-79
2023/07/28 02:20:16;;;;;;;8.68;4.63;;;12.50;99.90;;;;;;5049462;28;20131;-78
2023/07/28 02:22:44;;;;;;;7.38;3.97;;;12.60;99.90;;;;;;5051412;28;20044;-79
2023/07/28 02:25:11;;;;;;;7.07;3.85;;;12.50;99.90;;;;;;5051354;28;20136;-79
2023/07/28 02:27:39;;;;;;;6.28;3.80;;;12.60;99.90;;;;;;5051658;28;20092;-78
2023/07/28 02:30:08;;;;;;;8.55;4.40;;;12.60;99.90;;;;;;5050880;28;20037;-81
2023/07/28 02:32:36;;;;;;;5.75;4.20;;;12.60;99.90;;;;;;5051091;28;20136;-78
2023/07/28 02:35:04;;;;;;;6.00;3.58;;;12.60;99.90;;;;;;5051192;28;20055;-79
2023/07/28 02:37:33;;;;;;;6.95;3.83;;;12.60;99.90;;;;;;5034570;28;20029;-79
2023/07/28 02:40:01;;;;;;;6.18;4.10;;;12.60;99.90;;;;;;5054008;28;20048;-79
2023/07/28 02:42:28;;;;;;;6.82;4.03;;;12.50;99.90;;;;;;5055016;28;20037;-77
2023/07/28 02:44:56;;;;;;;6.35;3.50;;;12.40;99.90;;;;;;5053975;28;20033;-80
2023/07/28 02:47:24;;;;;;;7.75;3.75;;;12.40;99.90;;;;;;5054773;28;20069;-79
2023/07/28 02:49:51;;;;;;;6.40;3.92;;;12.30;99.90;;;;;;5041197;28;20076;-78
2023/07/28 02:52:19;;;;;;;6.00;4.30;;;12.30;99.90;;;;;;5056993;28;20524;-79
2023/07/28 02:54:50;;;;;;;6.80;4.28;;;12.30;99.90;;;;;;5057119;28;20072;-79
2023/07/28 02:57:17;;;;;;;12.27;4.35;;;12.30;99.90;;;;;;5053798;28;20102;-80
2023/07/28 02:59:48;;;;;;;8.48;4.55;;;12.30;99.90;;;;;;5037473;28;20037;-79
2023/07/28 03:02:16;;;;;;;6.78;3.60;;;12.30;99.90;;;;;;5037830;28;20047;-78
2023/07/28 03:04:44;;;;;;;8.82;4.57;;;12.40;99.90;;;;;;5039275;28;20045;-78
2023/07/28 03:07:15;;;;;;;6.75;4.22;;;12.30;99.90;;;;;;5054251;28;20049;-80
2023/07/28 03:09:44;;;;;;;6.63;4.55;;;12.30;99.90;;;;;;5091892;22;20125;-82
2023/07/28 03:12:13;;;;;;;8.27;4.78;;;12.20;99.90;;;;;;5039925;28;20053;-82
2023/07/28 03:14:41;;;;;;;7.15;4.60;;;12.20;99.90;;;;;;5049101;28;20033;-81
2023/07/28 03:17:09;;;;;;;9.60;5.50;;;12.20;99.90;;;;;;5043627;28;20041;-81
2023/07/28 03:19:36;;;;;;;10.77;5.25;;;12.20;99.90;;;;;;5049253;28;20029;-81
2023/07/28 03:22:04;;;;;;;10.07;5.97;;;12.20;99.90;;;;;;5043647;28;20779;-82
2023/07/28 03:24:31;;;;;;;11.75;6.22;;;12.10;99.90;;;;;;5049553;28;20155;-82
2023/07/28 03:26:58;;;;;;;10.85;6.82;;;12.00;99.90;;;;;;5043418;28;20047;-82
2023/07/28 03:29:27;;;;;;;11.35;6.70;;;11.90;99.90;;;;;;5050529;28;20033;-82
2023/07/28 03:31:54;;;;;;;9.07;6.57;;;11.90;99.90;;;;;;5049497;28;20037;-82
2023/07/28 03:34:22;;;;;;;9.77;6.50;;;12.00;99.90;;;;;;5050396;28;20041;-83
2023/07/28 03:36:50;;;;;;;12.10;7.38;;;12.00;99.90;;;;;;5060703;28;20048;-83
2023/07/28 03:39:17;;;;;;;10.55;7.32;;;12.00;99.90;;;;;;5058450;28;20543;-83
2023/07/28 03:41:48;;;;;;;9.43;6.05;;;12.10;99.90;;;;;;5049378;28;20048;-82
2023/07/28 03:44:16;;;;;;;7.45;5.63;;;12.10;99.90;;;;;;5058530;28;20039;-81
2023/07/28 03:46:45;;;;;;;6.53;4.97;;;12.20;99.90;;;;;;5051224;28;20504;-83
2023/07/28 03:49:13;;;;;;;6.88;4.60;;;12.10;99.90;;;;;;5044724;28;20091;-83
2023/07/28 03:51:40;;;;;;;8.73;4.50;;;12.10;99.90;;;;;;5057464;28;20048;-81
2023/07/28 03:54:08;;;;;;;8.63;4.70;;;12.10;99.90;;;;;;5050078;28;20069;-83
2023/07/28 03:56:35;;;;;;;7.22;4.63;;;12.20;99.90;;;;;;5053830;28;20040;-82
2023/07/28 03:59:02;;;;;;;6.65;4.38;;;12.20;99.90;;;;;;5049361;28;20049;-83
2023/07/28 04:01:30;;;;;;;9.68;4.68;;;12.30;99.90;;;;;;5063049;28;20346;-84
2023/07/28 04:04:03;;;;;;;7.40;4.45;;;12.60;99.90;;;;;;5049018;28;20044;-82
2023/07/28 04:06:44;;;;;;;7.75;4.07;;;13.20;99.90;;;;;;5061314;28;20048;-83
2023/07/28 04:09:12;;;;;;;7.20;3.78;;;13.70;99.90;;;;;;5040637;28;20144;-83
2023/07/28 04:11:39;;;;;;;8.13;3.95;;;14.50;99.90;;;;;;5043994;28;20585;-82
2023/07/28 04:14:07;;;;;;;16.65;4.35;;;14.90;99.90;;;;;;5039876;28;20037;-82
2023/07/28 04:16:35;;;;;;;8.23;3.65;;;15.50;99.90;;;;;;5049545;28;20526;-82
2023/07/28 04:19:04;;;;;;;7.70;3.97;;;16.10;99.90;;;;;;5059392;28;20106;-83
2023/07/28 04:21:31;;;;;;;7.35;3.92;;;16.80;99.90;;;;;;5049474;28;20044;-82
2023/07/28 04:23:58;;;;;;;7.20;3.67;;;17.50;99.90;;;;;;5049355;28;20048;-83
2023/07/28 04:26:26;;;;;;;9.77;3.42;;;18.30;99.90;;;;;;5051880;28;20051;-83
2023/07/28 04:29:02;;;;;;;8.57;3.20;;;18.70;99.90;;;;;;5062841;28;20037;-82
2023/07/28 04:31:30;;;;;;;6.38;3.58;;;19.20;99.90;;;;;;5065070;28;20049;-84
2023/07/28 04:34:07;;;;;;;10.10;3.88;;;19.40;99.90;;;;;;5054851;28;20116;-82
2023/07/28 04:37:05;;;;;;;10.88;4.57;;;19.40;99.90;;;;;;5053123;28;20048;-84
2023/07/28 04:39:44;;;;;;;8.38;4.68;;;19.70;99.90;;;;;;5052477;28;20055;-82
2023/07/28 04:42:13;;;;;;;9.10;3.88;;;20.20;99.90;;;;;;5049430;28;20118;-83
2023/07/28 04:44:45;;;;;;;9.02;3.78;;;20.80;99.90;;;;;;5051100;28;20041;-83
2023/07/28 04:47:14;;;;;;;8.13;3.90;;;21.20;99.90;;;;;;5051227;28;20053;-83
2023/07/28 04:49:44;;;;;;;6.68;3.90;;;21.50;99.90;;;;;;5049201;28;20045;-84
2023/07/28 04:52:12;;;;;;;7.95;4.90;;;22.10;99.90;;;;;;5051886;28;20132;-83
2023/07/28 04:54:52;;;;;;;5.65;3.80;;;22.20;99.90;;;;;;5047675;28;20048;-83
2023/07/28 04:57:19;;;;;;;7.97;4.20;;;22.00;99.90;;;;;;5049829;28;20049;-82
2023/07/28 04:59:47;;;;;;;9.15;3.97;;;21.50;99.90;;;;;;5046579;28;20068;-81
2023/07/28 05:02:14;;;;;;;10.07;4.10;;;20.70;99.90;;;;;;5048727;28;20037;-83
2023/07/28 05:04:43;;;;;;;8.73;4.70;;;20.00;99.90;;;;;;5048390;28;20131;-82
2023/07/28 05:07:10;;;;;;;10.20;4.93;;;19.20;99.90;;;;;;5050183;28;20052;-80
2023/07/28 05:09:38;;;;;;;7.35;4.28;;;18.50;99.90;;;;;;5049616;28;20061;-83
2023/07/28 05:12:06;;;;;;;8.50;4.57;;;18.40;99.90;;;;;;5053118;28;20037;-83
2023/07/28 05:14:41;;;;;;;13.52;4.78;;;18.50;99.90;;;;;;5053911;28;20106;-83
2023/07/28 05:17:09;;;;;;;10.75;5.85;;;18.60;99.90;;;;;;5051889;28;20047;-82
2023/07/28 05:19:52;;;;;;;5.75;4.32;;;19.10;99.90;;;;;;5049673;28;20041;-82
2023/07/28 05:22:48;;;;;;;11.10;7.53;;;20.20;99.90;;;;;;5058267;28;20047;-84
2023/07/28 05:25:16;;;;;;;10.15;5.97;;;21.40;99.90;;;;;;5051049;28;20040;-83
2023/07/28 05:27:44;;;;;;;14.57;7.88;;;22.30;99.90;;;;;;5050303;28;20044;-84
2023/07/28 05:30:14;;;;;;;10.80;8.38;;;23.10;99.90;;;;;;5052648;28;20508;-85
2023/07/28 05:32:41;;;;;;;6.25;3.90;;;23.80;99.90;;;;;;5051123;28;20040;-84
2023/07/28 05:35:37;;;;;;;8.07;5.18;;;24.20;99.90;;;;;;5051616;28;20052;-84
2023/07/28 05:38:04;;;;;;;8.02;5.18;;;24.20;99.90;;;;;;5051793;28;20040;-82
2023/07/28 05:40:32;;;;;;;8.63;4.20;;;23.70;99.90;;;;;;5053534;28;20049;-83
2023/07/28 05:42:59;;;;;;;8.73;5.10;;;23.60;99.90;;;;;;5070334;28;20044;-84
2023/07/28 05:45:26;;;;;;;9.20;5.00;;;23.90;99.90;;;;;;5068600;28;20075;-83
2023/07/28 05:47:54;;;;;;;7.68;4.65;;;23.90;99.90;;;;;;5060127;28;20098;-85
2023/07/28 05:50:21;;;;;;;8.88;6.30;;;24.00;99.90;;;;;;5073236;28;20102;-83
2023/07/28 05:52:50;;;;;;;9.05;6.25;;;24.10;99.90;;;;;;5058704;28;20053;-81
2023/07/28 05:55:18;;;;;;;7.75;4.80;;;24.10;99.90;;;;;;5053470;28;20075;-82
2023/07/28 05:57:45;;;;;;;7.85;4.68;;;24.10;99.90;;;;;;5052959;28;20040;-82
2023/07/28 06:00:14;;;;;;;8.23;4.55;;;24.00;99.90;;;;;;5061834;28;20045;-84
2023/07/28 06:02:41;;;;;;;10.18;4.65;;;23.80;99.90;;;;;;5075415;28;20051;-82
2023/07/28 06:05:12;;;;;;;10.68;4.95;;;23.90;99.90;;;;;;5058437;28;20123;-83
2023/07/28 06:07:45;;;;;;;7.20;4.70;;;23.80;99.90;;;;;;5058253;28;20029;-82
2023/07/28 06:10:13;;;;;;;8.57;5.60;;;23.60;99.90;;;;;;5053350;28;20041;-81
2023/07/28 06:12:41;;;;;;;6.88;4.50;;;23.30;99.90;;;;;;5053836;28;20049;-83
2023/07/28 06:15:11;;;;;;;7.80;4.43;;;23.20;99.90;;;;;;5045021;28;20636;-83
2023/07/28 06:17:40;;;;;;;6.32;4.43;;;22.70;99.90;;;;;;5057873;28;20124;-83
2023/07/28 06:20:09;;;;;;;6.65;4.55;;;22.40;99.90;;;;;;5053570;28;20049;-83
2023/07/28 06:22:37;;;;;;;7.35;4.38;;;22.30;99.90;;;;;;5054228;28;20131;-82
2023/07/28 06:25:05;;;;;;;7.10;4.47;;;22.10;99.90;;;;;;5053890;28;20064;-82
2023/07/28 06:27:34;;;;;;;12.38;9.13;;;21.90;99.90;;;;;;5054373;28;20099;-82
2023/07/28 06:30:02;;;;;;;7.78;6.88;;;21.90;99.90;;;;;;5057077;28;20037;-83
2023/07/28 06:32:30;;;;;;;9.43;4.80;;;21.90;99.90;;;;;;5059052;28;20041;-82
2023/07/28 06:34:57;;;;;;;9.00;4.93;;;21.90;99.90;;;;;;5055829;28;20144;-83
2023/07/28 06:37:25;;;;;;;8.13;5.82;;;21.80;99.90;;;;;;5058424;28;20041;-81
2023/07/28 06:39:54;;;;;;;7.15;5.00;;;21.80;99.90;;;;;;5062216;28;20041;-83
2023/07/28 06:42:24;;;;;;;7.30;4.40;;;21.60;99.90;;;;;;5063429;28;20047;-82
2023/07/28 06:44:57;;;;;;;13.05;7.47;;;21.50;99.90;;;;;;5065431;28;20055;-84
2023/07/28 06:47:33;;;;;;;7.40;5.10;;;21.50;99.90;;;;;;5061946;28;20060;-82
2023/07/28 06:50:02;;;;;;;12.07;9.00;;;21.50;99.90;;;;;;5059804;28;20075;-81
2023/07/28 06:52:30;;;;;;;7.47;5.28;;;21.70;99.90;;;;;;5054614;28;20036;-80
2023/07/28 06:54:58;;;;;;;8.32;5.68;;;22.10;99.90;;;;;;5053167;28;20481;-81
2023/07/28 06:57:26;;;;;;;9.05;5.30;;;22.30;99.90;;;;;;5054946;28;20063;-81
2023/07/28 06:59:54;;;;;;;7.35;5.10;;;22.30;99.90;;;;;;5037064;28;20041;-80
2023/07/28 07:02:23;;;;;;;7.57;5.35;;;22.20;99.90;;;;;;5051496;28;20125;-81
2023/07/28 07:04:50;;;;;;;10.02;4.50;;;22.20;99.90;;;;;;5075060;22;20171;-84
2023/07/28 07:07:23;;;;;;;7.80;4.63;;;22.40;99.90;;;;;;5041003;28;20038;-85
2023/07/28 07:09:50;;;;;;;7.97;5.35;;;22.60;99.90;;;;;;5051223;28;20056;-84
2023/07/28 07:12:19;;;;;;;5.97;5.05;;;22.80;99.90;;;;;;5049251;28;20048;-86
2023/07/28 07:17:29;;;;;;;7.63;5.25;;;23.30;99.90;;;;;;5053092;28;20041;-86
2023/07/28 07:19:56;;;;;;;7.82;4.20;;;23.40;99.90;;;;;;5075294;28;20051;-86
2023/07/28 07:22:25;;;;;;;7.20;4.75;;;23.40;99.90;;;;;;5073907;28;20037;-86
2023/07/28 07:24:53;;;;;;;9.32;5.30;;;23.60;99.90;;;;;;5055045;28;20515;-87
2023/07/28 07:27:20;;;;;;;6.93;4.90;;;23.70;99.90;;;;;;5055887;28;20046;-87
2023/07/28 07:29:48;;;;;;;5.65;4.18;;;24.00;99.90;;;;;;5071966;28;20072;-86
2023/07/28 07:32:17;;;;;;;5.05;3.38;;;24.10;99.90;;;;;;5055067;28;20056;-86
2023/07/28 07:34:46;;;;;;;5.60;4.20;;;24.10;99.90;;;;;;5075545;28;20194;-87
2023/07/28 07:37:14;;;;;;;5.93;3.38;;;24.30;99.90;;;;;;5054932;28;20068;-85
2023/07/28 07:39:46;;;;;;;4.55;3.17;;;24.60;99.90;;;;;;5056077;28;20212;-85
2023/07/28 07:42:14;;;;;;;6.70;4.30;;;24.60;99.90;;;;;;5072619;28;20098;-85
2023/07/28 07:44:42;;;;;;;7.60;5.68;;;24.60;99.90;;;;;;5085899;28;20079;-88
2023/07/28 07:47:16;;;;;;;7.50;5.63;;;24.80;99.90;;;;;;5076255;28;20052;-84
2023/07/28 12:27:00;;;;;;;8.43;3.15;;;28.60;99.90;;;;;;5111091;27;20404;-77
2023/07/28 12:29:27;;;;;;;6.70;3.45;;;28.50;99.90;;;;;;5108315;28;20568;-79
2023/07/28 12:31:55;;;;;;;7.75;3.40;;;28.50;99.90;;;;;;5127051;28;20046;-77
2023/07/28 12:34:25;;;;;;;10.43;4.40;;;28.50;99.90;;;;;;5111321;28;20070;-81
2023/07/28 12:36:53;;;;;;;9.48;4.10;;;28.70;99.90;;;;;;5122523;28;20039;-75
2023/07/28 12:39:21;;;;;;;4.55;2.90;;;28.70;99.90;;;;;;5119850;28;20122;-78
2023/07/28 12:41:48;;;;;;;4.07;3.00;;;28.70;99.90;;;;;;5120211;28;20443;-84
2023/07/28 12:44:20;;;;;;;6.05;2.88;;;28.50;99.90;;;;;;5093272;28;20040;-82
2023/07/28 12:46:50;;;;;;;7.75;3.78;;;28.50;99.90;;;;;;5118642;28;20051;-84
2023/07/28 12:49:21;;;;;;;4.65;3.08;;;28.50;99.90;;;;;;5113056;28;20058;-80
2023/07/28 12:51:48;;;;;;;6.97;3.30;;;28.70;99.90;;;;;;5130370;28;20475;-80
2023/07/28 12:54:16;;;;;;;3.90;2.75;;;28.80;99.90;;;;;;5098107;28;20050;-79
2023/07/28 12:56:44;;;;;;;6.65;3.15;;;28.90;99.90;;;;;;5115613;28;20047;-83
2023/07/28 12:59:11;;;;;;;6.18;3.50;;;28.90;99.90;;;;;;5112828;28;20566;-78
2023/07/28 13:01:40;;;;;;;8.10;4.20;;;29.10;99.90;;;;;;5098153;28;20038;-76
2023/07/28 13:04:08;;;;;;;7.63;4.57;;;29.10;99.90;;;;;;5126188;28;20506;-81
2023/07/28 13:06:36;;;;;;;6.40;4.32;;;29.30;99.90;;;;;;5127070;28;20130;-77
2023/07/28 13:09:04;;;;;;;4.80;3.35;;;29.30;99.90;;;;;;5108426;28;20122;-82
2023/07/28 13:11:32;;;;;;;5.75;4.68;;;29.40;99.90;;;;;;5128918;28;20542;-80
2023/07/28 13:13:59;;;;;;;4.03;2.58;;;29.30;99.90;;;;;;5127219;28;20057;-78
2023/07/28 13:16:27;;;;;;;5.85;2.55;;;29.20;99.90;;;;;;5126828;28;20050;-76
2023/07/28 13:18:59;;;;;;;4.95;3.15;;;29.10;99.90;;;;;;5124585;28;20054;-77
2023/07/28 13:21:30;;;;;;;8.75;3.78;;;29.10;99.90;;;;;;5127695;28;20034;-79
2023/07/28 13:23:58;;;;;;;5.15;2.53;;;29.20;99.90;;;;;;5109241;28;20944;-75
2023/07/28 13:26:27;;;;;;;7.55;4.07;;;29.10;99.90;;;;;;5128565;28;20071;-78
2023/07/28 13:28:56;;;;;;;5.20;3.10;;;29.20;99.90;;;;;;5104725;28;20050;-77
2023/07/28 13:31:24;;;;;;;4.50;3.00;;;29.20;99.90;;;;;;5138647;28;20035;-75
2023/07/28 13:33:52;;;;;;;7.75;4.38;;;29.20;99.90;;;;;;5125687;28;20078;-75
2023/07/28 13:36:21;;;;;;;5.50;4.05;;;29.20;99.90;;;;;;5108711;28;20093;-77
2023/07/28 13:38:49;;;;;;;7.90;2.95;;;29.40;99.90;;;;;;5115173;27;20032;-77
2023/07/28 13:41:18;;;;;;;5.55;2.95;;;29.30;99.90;;;;;;5116557;28;20044;-74
2023/07/28 13:43:52;;;;;;;6.60;3.30;;;29.10;99.90;;;;;;5116225;28;20591;-76
2023/07/28 13:46:19;;;;;;;5.38;2.80;;;29.10;99.90;;;;;;5114634;28;20039;-74
2023/07/28 13:48:47;;;;;;;5.15;2.90;;;29.10;99.90;;;;;;5113501;28;20039;-78
2023/07/28 13:51:14;;;;;;;5.70;2.78;;;29.10;99.90;;;;;;5115665;28;20647;-77
2023/07/28 13:53:43;;;;;;;6.95;3.35;;;29.10;99.90;;;;;;5113019;28;20046;-77
2023/07/28 13:56:10;;;;;;;6.38;3.03;;;29.10;99.90;;;;;;5114206;28;20558;-77
2023/07/28 13:58:38;;;;;;;4.80;3.33;;;29.20;99.90;;;;;;5110573;28;20036;-76
2023/07/28 14:01:06;;;;;;;5.65;3.10;;;29.10;99.90;;;;;;5110704;28;20380;-78
2023/07/28 14:03:33;;;;;;;5.20;3.38;;;29.10;99.90;;;;;;5124131;28;20031;-76
2023/07/28 14:06:01;;;;;;;5.63;3.70;;;29.30;99.90;;;;;;5117222;27;20044;-77
2023/07/28 14:08:28;;;;;;;12.15;3.63;;;29.30;99.90;;;;;;5114487;28;20147;-76
2023/07/28 14:10:57;;;;;;;6.90;3.67;;;29.50;99.90;;;;;;5111527;27;20054;-76
2023/07/28 14:13:24;;;;;;;5.60;3.10;;;29.40;99.90;;;;;;5131015;27;20124;-77
2023/07/28 14:15:52;;;;;;;5.60;3.28;;;29.40;99.90;;;;;;5118704;28;20050;-76
2023/07/28 14:18:19;;;;;;;3.72;2.75;;;29.20;99.90;;;;;;5130660;28;20122;-76
2023/07/28 14:23:36;;;;;;;5.80;3.15;;;29.10;99.90;;;;;;5105877;28;20031;-75
2023/07/28 14:26:04;;;;;;;5.18;3.28;;;29.30;99.90;;;;;;5114913;28;20043;-78
2023/07/28 14:28:32;;;;;;;5.15;2.92;;;29.40;99.90;;;;;;5112591;28;20100;-78
2023/07/28 14:31:00;;;;;;;10.15;3.42;;;29.60;99.90;;;;;;5102950;28;20043;-77
2023/07/28 14:33:28;;;;;;;6.68;2.97;;;29.70;99.90;;;;;;5114972;28;20086;-74
2023/07/28 14:35:56;;;;;;;4.72;3.03;;;29.80;99.90;;;;;;5111619;28;20048;-78
2023/07/28 14:38:23;;;;;;;5.80;3.08;;;30.00;99.90;;;;;;5112138;28;20522;-76
2023/07/28 14:40:51;;;;;;;7.25;3.20;;;30.20;99.90;;;;;;5111118;28;20052;-75
2023/07/28 14:43:22;;;;;;;7.10;4.32;;;30.00;99.90;;;;;;5111215;28;20092;-79
2023/07/28 14:45:56;;;;;;;4.78;3.40;;;30.20;99.90;;;;;;5101113;28;20122;-81
2023/07/28 14:48:27;;;;;;;5.68;3.38;;;30.20;99.90;;;;;;5093200;28;20051;-80
2023/07/28 14:50:55;;;;;;;6.80;2.90;;;30.40;99.90;;;;;;5093522;28;20054;-77
2023/07/28 14:53:36;;;;;;;6.93;5.20;;;30.50;99.90;;;;;;5093870;28;20040;-75
2023/07/28 14:56:04;;;;;;;11.80;8.18;;;30.60;99.90;;;;;;5114171;28;20044;-78
2023/07/28 14:58:34;;;;;;;151.05;121.13;;;30.40;99.90;;;;;;5114984;28;20036;-76
2023/07/28 15:01:04;;;;;;;234.70;208.95;;;30.40;99.90;;;;;;5092975;28;20043;-77
2023/07/28 15:03:32;;;;;;;71.65;60.45;;;30.50;99.90;;;;;;5116355;28;20121;-77
2023/07/28 15:06:02;;;;;;;9.13;5.50;;;30.50;99.90;;;;;;5114088;28;20040;-76
2023/07/28 15:08:29;;;;;;;6.40;4.18;;;30.50;99.90;;;;;;5094729;27;20040;-75
2023/07/28 15:10:58;;;;;;;11.63;7.20;;;30.40;99.90;;;;;;5114278;28;20040;-80
2023/07/28 15:13:26;;;;;;;21.30;19.13;;;30.10;99.90;;;;;;5106312;22;20056;-92
2023/07/28 15:15:56;;;;;;;10.88;8.70;;;30.10;99.90;;;;;;5043573;28;20041;-88
2023/07/28 15:18:24;;;;;;;6.25;5.30;;;30.10;99.90;;;;;;5046789;28;20052;-89
2023/07/28 15:20:52;;;;;;;6.22;3.80;;;30.10;99.90;;;;;;5047492;28;20053;-89
2023/07/28 15:23:20;;;;;;;6.38;3.22;;;30.00;99.90;;;;;;5044576;28;20048;-91
2023/07/28 15:25:47;;;;;;;5.10;3.17;;;29.90;99.90;;;;;;5046114;28;20045;-89
2023/07/28 15:28:15;;;;;;;4.57;3.47;;;29.80;99.90;;;;;;5037607;28;20044;-90
2023/07/28 15:30:46;;;;;;;5.05;3.10;;;29.80;99.90;;;;;;5047195;28;20045;-90
2023/07/28 15:33:17;;;;;;;7.35;3.53;;;29.80;99.90;;;;;;5047633;28;20056;-92
2023/07/28 15:35:49;;;;;;;6.25;3.08;;;29.60;99.90;;;;;;5022154;28;20160;-91
2023/07/28 15:38:18;;;;;;;5.47;3.13;;;29.50;99.90;;;;;;5025803;28;20116;-92
2023/07/28 15:40:48;;;;;;;5.88;3.30;;;29.60;99.90;;;;;;5037995;28;20025;-91
2023/07/28 15:43:16;;;;;;;5.95;3.30;;;29.60;99.90;;;;;;5043318;28;20050;-91
2023/07/28 15:45:45;;;;;;;6.10;3.38;;;29.40;99.90;;;;;;5008255;28;20072;-87
2023/07/28 15:48:21;;;;;;;7.18;3.45;;;29.30;99.90;;;;;;5037216;28;20117;-90
2023/07/28 15:50:59;;;;;;;6.68;3.30;;;29.10;99.90;;;;;;5021035;28;20092;-90
2023/07/28 15:53:28;;;;;;;7.00;3.30;;;29.10;99.90;;;;;;5013941;28;20054;-93
2023/07/28 15:56:04;;;;;;;5.72;3.05;;;29.10;99.90;;;;;;5017756;28;20111;-90
2023/07/28 15:58:38;;;;;;;7.05;3.30;;;29.10;99.90;;;;;;5019837;28;20034;-92
2023/07/28 16:01:06;;;;;;;5.32;3.30;;;29.10;99.90;;;;;;5031180;28;20041;-87
2023/07/28 16:03:34;;;;;;;5.55;3.28;;;29.10;99.90;;;;;;5019693;28;20129;-81
2023/07/28 16:06:02;;;;;;;6.80;3.17;;;29.00;99.90;;;;;;5019464;28;20493;-82
2023/07/28 16:08:29;;;;;;;4.85;2.83;;;29.00;99.90;;;;;;5019331;28;20053;-82
2023/07/28 16:10:57;;;;;;;5.97;3.60;;;29.00;99.90;;;;;;5016017;28;20060;-83
2023/07/28 16:13:26;;;;;;;6.13;3.08;;;29.00;99.90;;;;;;5017011;28;20049;-82
2023/07/28 16:15:54;;;;;;;5.07;2.90;;;28.90;99.90;;;;;;4998485;28;20038;-82
2023/07/28 16:18:21;;;;;;;6.05;3.40;;;28.80;99.90;;;;;;4999323;28;20043;-82
2023/07/28 16:20:51;;;;;;;5.18;2.72;;;28.70;99.90;;;;;;4998176;28;20050;-79
2023/07/28 16:23:19;;;;;;;4.72;2.75;;;28.60;99.90;;;;;;5004951;28;20030;-80
2023/07/28 16:25:47;;;;;;;6.35;3.00;;;28.60;99.90;;;;;;5002931;28;20038;-81
2023/07/28 16:28:15;;;;;;;5.63;3.17;;;28.60;99.90;;;;;;5007149;28;20053;-80
2023/07/28 16:30:46;;;;;;;5.05;3.28;;;28.50;99.90;;;;;;5001294;28;20418;-81
2023/07/28 16:33:13;;;;;;;6.85;3.20;;;28.40;99.90;;;;;;5007709;28;20038;-79
2023/07/28 16:35:41;;;;;;;6.03;3.78;;;28.30;99.90;;;;;;5005011;28;20504;-79
2023/07/28 16:38:10;;;;;;;5.75;3.75;;;28.30;99.90;;;;;;5005710;28;20057;-77
2023/07/28 16:40:37;;;;;;;9.80;4.45;;;28.20;99.90;;;;;;5002714;28;20051;-79
2023/07/28 16:43:05;;;;;;;6.82;4.75;;;28.20;99.90;;;;;;5001670;28;20046;-80
2023/07/28 16:45:32;;;;;;;5.85;4.13;;;28.10;99.90;;;;;;4998757;28;20047;-79
2023/07/28 16:47:59;;;;;;;8.18;4.28;;;28.10;99.90;;;;;;4997451;28;20060;-78
2023/07/28 16:50:27;;;;;;;5.78;3.45;;;28.10;99.90;;;;;;5004178;28;20037;-81
2023/07/28 16:52:57;;;;;;;6.35;3.35;;;28.10;99.90;;;;;;5000659;28;20041;-79
2023/07/28 16:55:27;;;;;;;5.85;3.58;;;28.10;99.90;;;;;;5004645;28;20074;-80
2023/07/28 16:57:57;;;;;;;5.50;3.00;;;28.00;99.90;;;;;;4977999;28;20057;-79
2023/07/28 17:00:25;;;;;;;5.93;3.38;;;27.80;99.90;;;;;;5011589;28;20042;-79
2023/07/28 17:02:54;;;;;;;8.07;3.33;;;27.80;99.90;;;;;;4998690;28;20049;-80
2023/07/28 17:05:22;;;;;;;5.45;3.38;;;27.80;99.90;;;;;;5000360;28;20518;-80
2023/07/28 17:07:49;;;;;;;5.57;3.58;;;27.70;99.90;;;;;;5005890;28;20053;-79
2023/07/28 17:10:17;;;;;;;5.63;2.90;;;27.70;99.90;;;;;;5006132;28;20054;-79
2023/07/28 17:12:47;;;;;;;6.15;3.10;;;27.60;99.90;;;;;;5001020;28;20626;-81
2023/07/28 17:15:14;;;;;;;6.10;3.30;;;27.50;99.90;;;;;;5017468;28;20072;-81
2023/07/28 17:17:41;;;;;;;7.30;3.63;;;27.40;99.90;;;;;;5002542;28;20049;-80
2023/07/28 17:20:10;;;;;;;5.15;3.00;;;27.40;99.90;;;;;;5021048;28;20120;-79
2023/07/28 17:22:37;;;;;;;8.23;3.40;;;27.20;99.90;;;;;;5018995;28;20042;-78
2023/07/28 17:25:06;;;;;;;6.35;3.20;;;27.20;99.90;;;;;;5019137;28;20050;-79
2023/07/28 17:27:33;;;;;;;5.55;3.13;;;27.10;99.90;;;;;;5020121;28;20085;-78
2023/07/28 17:30:02;;;;;;;7.82;3.40;;;27.00;99.90;;;;;;5020147;28;20042;-81
2023/07/28 17:32:29;;;;;;;6.55;3.72;;;26.90;99.90;;;;;;5020749;28;20129;-80
2023/07/28 17:34:57;;;;;;;10.07;4.53;;;26.90;99.90;;;;;;5021204;28;20050;-82
2023/07/28 17:37:25;;;;;;;8.05;3.90;;;26.80;99.90;;;;;;5020159;28;20061;-83